sensor_id;sensor_type;location;lat;lon;timestamp;temperature;humidity
53294;DHT22;39181;53.440;5.644;2023-04-15T00:00:50;7.60;99.90
53294;DHT22;39181;53.440;5.644;2023-04-15T00:03:16;7.60;99.90
53294;DHT22;39181;53.440;5.644;2023-04-15T00:05:43;7.50;99.90
53294;DHT22;39181;53.440;5.644;2023-04-15T00:08:08;7.70;99.90
53294;DHT22;39181;53.440;5.644;2023-04-15T00:10:34;7.50;99.90
53294;DHT22;39181;53.440;5.644;2023-04-15T00:13:00;7.40;99.90
53294;DHT22;39181;53.440;5.644;2023-04-15T00:15:26;7.40;99.90
53294;DHT22;39181;53.440;5.644;2023-04-15T00:17:55;7.40;99.90
53294;DHT22;39181;53.440;5.644;2023-04-15T00:20:21;7.40;99.90
53294;DHT22;39181;53.440;5.644;2023-04-15T00:22:47;7.40;99.90
53294;DHT22;39181;53.440;5.644;2023-04-15T00:25:13;7.30;99.90
53294;DHT22;39181;53.440;5.644;2023-04-15T00:27:39;7.30;99.90
53294;DHT22;39181;53.440;5.644;2023-04-15T00:30:06;7.30;99.90
53294;DHT22;39181;53.440;5.644;2023-04-15T00:32:31;7.20;99.90
53294;DHT22;39181;53.440;5.644;2023-04-15T00:34:57;7.20;99.90
53294;DHT22;39181;53.440;5.644;2023-04-15T00:37:23;7.20;99.90
53294;DHT22;39181;53.440;5.644;2023-04-15T00:39:49;7.10;99.90
53294;DHT22;39181;53.440;5.644;2023-04-15T00:42:14;7.10;99.90
53294;DHT22;39181;53.440;5.644;2023-04-15T00:44:40;7.10;99.90
53294;DHT22;39181;53.440;5.644;2023-04-15T00:47:07;7.00;99.90
53294;DHT22;39181;53.440;5.644;2023-04-15T00:49:33;7.00;99.90
53294;DHT22;39181;53.440;5.644;2023-04-15T00:51:58;7.00;99.90
53294;DHT22;39181;53.440;5.644;2023-04-15T00:54:24;7.00;99.90
53294;DHT22;39181;53.440;5.644;2023-04-15T00:56:50;7.00;99.90
53294;DHT22;39181;53.440;5.644;2023-04-15T00:59:19;7.00;99.90
53294;DHT22;39181;53.440;5.644;2023-04-15T01:01:45;7.10;99.90
53294;DHT22;39181;53.440;5.644;2023-04-15T01:04:11;7.00;99.90
53294;DHT22;39181;53.440;5.644;2023-04-15T01:06:39;7.00;99.90
53294;DHT22;39181;53.440;5.644;2023-04-15T01:09:05;7.00;99.90
53294;DHT22;39181;53.440;5.644;2023-04-15T01:11:31;7.00;99.90
53294;DHT22;39181;53.440;5.644;2023-04-15T01:13:58;7.00;99.90
53294;DHT22;39181;53.440;5.644;2023-04-15T01:16:24;6.90;99.90
53294;DHT22;39181;53.440;5.644;2023-04-15T01:18:51;6.90;99.90
53294;DHT22;39181;53.440;5.644;2023-04-15T01:21:17;6.90;99.90
53294;DHT22;39181;53.440;5.644;2023-04-15T01:23:46;6.90;99.90
53294;DHT22;39181;53.440;5.644;2023-04-15T01:26:12;6.90;99.90
53294;DHT22;39181;53.440;5.644;2023-04-15T01:28:38;6.90;99.90
53294;DHT22;39181;53.440;5.644;2023-04-15T01:31:09;6.90;99.90
53294;DHT22;39181;53.440;5.644;2023-04-15T01:33:36;6.90;99.90
53294;DHT22;39181;53.440;5.644;2023-04-15T01:36:06;6.90;99.90
53294;DHT22;39181;53.440;5.644;2023-04-15T01:38:36;7.00;99.90
53294;DHT22;39181;53.440;5.644;2023-04-15T01:41:02;7.00;99.90
53294;DHT22;39181;53.440;5.644;2023-04-15T01:43:35;7.00;99.90
53294;DHT22;39181;53.440;5.644;2023-04-15T01:46:02;7.00;99.90
53294;DHT22;39181;53.440;5.644;2023-04-15T01:48:27;7.00;99.90
53294;DHT22;39181;53.440;5.644;2023-04-15T01:50:54;7.00;99.90
53294;DHT22;39181;53.440;5.644;2023-04-15T01:53:25;7.00;99.90
53294;DHT22;39181;53.440;5.644;2023-04-15T01:55:51;7.00;99.90
53294;DHT22;39181;53.440;5.644;2023-04-15T01:58:17;6.90;99.90
53294;DHT22;39181;53.440;5.644;2023-04-15T02:00:43;6.90;99.90
53294;DHT22;39181;53.440;5.644;2023-04-15T02:03:12;6.90;99.90
53294;DHT22;39181;53.440;5.644;2023-04-15T02:05:38;6.90;99.90
53294;DHT22;39181;53.440;5.644;2023-04-15T02:08:03;6.90;99.90
53294;DHT22;39181;53.440;5.644;2023-04-15T02:10:29;6.90;99.90
53294;DHT22;39181;53.440;5.644;2023-04-15T02:12:54;6.80;99.90
53294;DHT22;39181;53.440;5.644;2023-04-15T02:15:20;6.80;99.90
53294;DHT22;39181;53.440;5.644;2023-04-15T02:17:46;6.80;99.90
53294;DHT22;39181;53.440;5.644;2023-04-15T02:20:15;6.80;99.90
53294;DHT22;39181;53.440;5.644;2023-04-15T02:22:42;6.70;99.90
53294;DHT22;39181;53.440;5.644;2023-04-15T02:25:08;6.70;99.90
53294;DHT22;39181;53.440;5.644;2023-04-15T02:27:35;6.80;99.90
53294;DHT22;39181;53.440;5.644;2023-04-15T02:30:01;6.80;99.90
53294;DHT22;39181;53.440;5.644;2023-04-15T02:32:26;6.70;99.90
53294;DHT22;39181;53.440;5.644;2023-04-15T02:34:53;6.90;99.90
53294;DHT22;39181;53.440;5.644;2023-04-15T02:37:19;6.70;99.90
53294;DHT22;39181;53.440;5.644;2023-04-15T02:39:45;6.70;99.90
53294;DHT22;39181;53.440;5.644;2023-04-15T02:42:11;6.70;99.90
53294;DHT22;39181;53.440;5.644;2023-04-15T02:44:37;6.70;99.90
53294;DHT22;39181;53.440;5.644;2023-04-15T02:47:03;6.70;99.90
53294;DHT22;39181;53.440;5.644;2023-04-15T02:49:32;6.70;99.90
53294;DHT22;39181;53.440;5.644;2023-04-15T02:51:58;6.80;99.90
53294;DHT22;39181;53.440;5.644;2023-04-15T02:54:25;6.70;99.90
53294;DHT22;39181;53.440;5.644;2023-04-15T02:56:54;6.70;99.90
53294;DHT22;39181;53.440;5.644;2023-04-15T02:59:20;6.60;99.90
53294;DHT22;39181;53.440;5.644;2023-04-15T03:01:46;6.60;99.90
53294;DHT22;39181;53.440;5.644;2023-04-15T03:04:11;6.50;99.90
53294;DHT22;39181;53.440;5.644;2023-04-15T03:06:38;6.50;99.90
53294;DHT22;39181;53.440;5.644;2023-04-15T03:09:03;6.50;99.90
53294;DHT22;39181;53.440;5.644;2023-04-15T03:11:32;6.40;99.90
53294;DHT22;39181;53.440;5.644;2023-04-15T03:13:58;6.40;99.90
53294;DHT22;39181;53.440;5.644;2023-04-15T03:16:24;6.30;99.90
53294;DHT22;39181;53.440;5.644;2023-04-15T03:18:53;6.30;99.90
53294;DHT22;39181;53.440;5.644;2023-04-15T03:21:19;6.40;99.90
53294;DHT22;39181;53.440;5.644;2023-04-15T03:23:44;6.30;99.90
53294;DHT22;39181;53.440;5.644;2023-04-15T03:26:26;6.30;99.90
53294;DHT22;39181;53.440;5.644;2023-04-15T03:28:51;6.30;99.90
53294;DHT22;39181;53.440;5.644;2023-04-15T03:31:17;6.30;99.90
53294;DHT22;39181;53.440;5.644;2023-04-15T03:33:43;6.30;99.90
53294;DHT22;39181;53.440;5.644;2023-04-15T03:36:08;6.20;99.90
53294;DHT22;39181;53.440;5.644;2023-04-15T03:38:34;6.10;99.90
53294;DHT22;39181;53.440;5.644;2023-04-15T03:41:02;6.10;99.90
53294;DHT22;39181;53.440;5.644;2023-04-15T03:43:28;6.10;99.90
53294;DHT22;39181;53.440;5.644;2023-04-15T03:45:53;6.00;99.90
53294;DHT22;39181;53.440;5.644;2023-04-15T03:48:19;6.00;99.90
53294;DHT22;39181;53.440;5.644;2023-04-15T03:50:45;6.00;99.90
53294;DHT22;39181;53.440;5.644;2023-04-15T03:53:11;6.00;99.90
53294;DHT22;39181;53.440;5.644;2023-04-15T03:55:39;5.90;99.90
53294;DHT22;39181;53.440;5.644;2023-04-15T03:58:04;6.00;99.90
53294;DHT22;39181;53.440;5.644;2023-04-15T04:00:30;5.90;99.90
53294;DHT22;39181;53.440;5.644;2023-04-15T04:03:02;6.00;99.90
53294;DHT22;39181;53.440;5.644;2023-04-15T04:05:28;5.90;99.90
53294;DHT22;39181;53.440;5.644;2023-04-15T04:07:53;5.90;99.90
53294;DHT22;39181;53.440;5.644;2023-04-15T04:10:19;6.00;99.90
53294;DHT22;39181;53.440;5.644;2023-04-15T04:12:45;6.00;99.90
53294;DHT22;39181;53.440;5.644;2023-04-15T04:15:13;6.00;99.90
53294;DHT22;39181;53.440;5.644;2023-04-15T04:17:39;6.00;99.90
53294;DHT22;39181;53.440;5.644;2023-04-15T04:20:05;6.00;99.90
53294;DHT22;39181;53.440;5.644;2023-04-15T04:22:36;6.00;99.90
53294;DHT22;39181;53.440;5.644;2023-04-15T04:25:02;6.00;99.90
53294;DHT22;39181;53.440;5.644;2023-04-15T04:27:28;6.00;99.90
53294;DHT22;39181;53.440;5.644;2023-04-15T04:29:54;6.00;99.90
53294;DHT22;39181;53.440;5.644;2023-04-15T04:32:19;6.00;99.90
53294;DHT22;39181;53.440;5.644;2023-04-15T04:34:45;6.10;99.90
53294;DHT22;39181;53.440;5.644;2023-04-15T04:37:11;6.10;99.90
53294;DHT22;39181;53.440;5.644;2023-04-15T04:39:37;6.20;99.90
53294;DHT22;39181;53.440;5.644;2023-04-15T04:42:02;6.20;99.90
53294;DHT22;39181;53.440;5.644;2023-04-15T04:44:28;6.30;99.90
53294;DHT22;39181;53.440;5.644;2023-04-15T04:46:54;6.40;99.90
53294;DHT22;39181;53.440;5.644;2023-04-15T04:49:28;6.50;99.90
53294;DHT22;39181;53.440;5.644;2023-04-15T04:51:55;6.50;99.90
53294;DHT22;39181;53.440;5.644;2023-04-15T04:54:20;6.50;99.90
53294;DHT22;39181;53.440;5.644;2023-04-15T04:56:46;6.50;99.90
53294;DHT22;39181;53.440;5.644;2023-04-15T04:59:12;6.60;99.90
53294;DHT22;39181;53.440;5.644;2023-04-15T05:01:38;6.60;99.90
53294;DHT22;39181;53.440;5.644;2023-04-15T05:04:04;6.70;99.90
53294;DHT22;39181;53.440;5.644;2023-04-15T05:06:30;6.70;99.90
53294;DHT22;39181;53.440;5.644;2023-04-15T05:08:56;6.70;99.90
53294;DHT22;39181;53.440;5.644;2023-04-15T05:11:21;6.60;99.90
53294;DHT22;39181;53.440;5.644;2023-04-15T05:13:47;6.70;99.90
53294;DHT22;39181;53.440;5.644;2023-04-15T05:16:12;6.70;99.90
53294;DHT22;39181;53.440;5.644;2023-04-15T05:18:38;6.70;99.90
53294;DHT22;39181;53.440;5.644;2023-04-15T05:21:04;6.70;99.90
53294;DHT22;39181;53.440;5.644;2023-04-15T05:23:29;6.80;99.90
53294;DHT22;39181;53.440;5.644;2023-04-15T05:25:55;6.80;99.90
53294;DHT22;39181;53.440;5.644;2023-04-15T05:28:21;6.90;99.90
53294;DHT22;39181;53.440;5.644;2023-04-15T05:30:49;6.90;99.90
53294;DHT22;39181;53.440;5.644;2023-04-15T05:33:14;6.90;99.90
53294;DHT22;39181;53.440;5.644;2023-04-15T05:35:40;6.90;99.90
53294;DHT22;39181;53.440;5.644;2023-04-15T05:38:06;7.00;99.90
53294;DHT22;39181;53.440;5.644;2023-04-15T05:40:31;7.00;99.90
53294;DHT22;39181;53.440;5.644;2023-04-15T05:42:57;7.00;99.90
53294;DHT22;39181;53.440;5.644;2023-04-15T05:45:22;7.10;99.90
53294;DHT22;39181;53.440;5.644;2023-04-15T05:47:48;7.10;99.90
53294;DHT22;39181;53.440;5.644;2023-04-15T05:50:15;7.10;99.90
53294;DHT22;39181;53.440;5.644;2023-04-15T05:52:41;7.30;99.90
53294;DHT22;39181;53.440;5.644;2023-04-15T05:55:07;7.30;99.90
53294;DHT22;39181;53.440;5.644;2023-04-15T05:57:36;7.40;99.90
53294;DHT22;39181;53.440;5.644;2023-04-15T06:00:03;7.50;99.90
53294;DHT22;39181;53.440;5.644;2023-04-15T06:02:29;7.50;99.90
53294;DHT22;39181;53.440;5.644;2023-04-15T06:04:56;7.60;99.90
53294;DHT22;39181;53.440;5.644;2023-04-15T06:07:22;7.70;99.90
53294;DHT22;39181;53.440;5.644;2023-04-15T06:09:48;7.70;99.90
53294;DHT22;39181;53.440;5.644;2023-04-15T06:12:14;7.80;99.90
53294;DHT22;39181;53.440;5.644;2023-04-15T06:14:40;7.90;99.90
53294;DHT22;39181;53.440;5.644;2023-04-15T06:17:06;8.00;99.90
53294;DHT22;39181;53.440;5.644;2023-04-15T06:19:32;8.10;99.90
53294;DHT22;39181;53.440;5.644;2023-04-15T06:21:58;8.20;99.90
53294;DHT22;39181;53.440;5.644;2023-04-15T06:24:23;8.40;99.90
53294;DHT22;39181;53.440;5.644;2023-04-15T06:26:49;8.40;99.90
53294;DHT22;39181;53.440;5.644;2023-04-15T06:29:15;8.50;99.90
53294;DHT22;39181;53.440;5.644;2023-04-15T06:31:40;8.60;99.90
53294;DHT22;39181;53.440;5.644;2023-04-15T06:34:06;8.70;99.90
53294;DHT22;39181;53.440;5.644;2023-04-15T06:36:32;8.80;99.90
53294;DHT22;39181;53.440;5.644;2023-04-15T06:38:58;8.90;99.90
53294;DHT22;39181;53.440;5.644;2023-04-15T06:41:23;9.00;99.90
53294;DHT22;39181;53.440;5.644;2023-04-15T06:43:49;9.00;99.90
53294;DHT22;39181;53.440;5.644;2023-04-15T06:46:15;9.10;99.90
53294;DHT22;39181;53.440;5.644;2023-04-15T06:48:40;9.20;99.90
53294;DHT22;39181;53.440;5.644;2023-04-15T06:51:07;9.30;99.90
53294;DHT22;39181;53.440;5.644;2023-04-15T06:53:32;9.40;99.90
53294;DHT22;39181;53.440;5.644;2023-04-15T06:56:01;9.40;99.90
53294;DHT22;39181;53.440;5.644;2023-04-15T06:58:26;9.40;99.90
53294;DHT22;39181;53.440;5.644;2023-04-15T07:00:52;9.40;99.90
53294;DHT22;39181;53.440;5.644;2023-04-15T07:03:18;9.40;99.90
53294;DHT22;39181;53.440;5.644;2023-04-15T07:05:43;9.40;99.90
53294;DHT22;39181;53.440;5.644;2023-04-15T07:08:09;9.40;99.90
53294;DHT22;39181;53.440;5.644;2023-04-15T07:10:35;9.40;99.90
53294;DHT22;39181;53.440;5.644;2023-04-15T07:13:01;9.40;99.90
53294;DHT22;39181;53.440;5.644;2023-04-15T07:15:27;9.40;99.90
53294;DHT22;39181;53.440;5.644;2023-04-15T07:17:53;9.40;99.90
53294;DHT22;39181;53.440;5.644;2023-04-15T07:20:22;9.40;99.90
53294;DHT22;39181;53.440;5.644;2023-04-15T07:22:48;9.20;99.90
53294;DHT22;39181;53.440;5.644;2023-04-15T07:25:16;9.30;99.90
53294;DHT22;39181;53.440;5.644;2023-04-15T07:27:43;9.40;99.90
53294;DHT22;39181;53.440;5.644;2023-04-15T07:30:09;9.30;99.90
53294;DHT22;39181;53.440;5.644;2023-04-15T07:32:35;9.30;99.90
53294;DHT22;39181;53.440;5.644;2023-04-15T07:35:01;9.30;99.90
53294;DHT22;39181;53.440;5.644;2023-04-15T07:37:28;9.40;99.90
53294;DHT22;39181;53.440;5.644;2023-04-15T07:39:59;9.40;99.90
53294;DHT22;39181;53.440;5.644;2023-04-15T07:42:25;9.50;99.90
53294;DHT22;39181;53.440;5.644;2023-04-15T07:44:53;9.50;99.90
53294;DHT22;39181;53.440;5.644;2023-04-15T07:47:19;9.60;99.90
53294;DHT22;39181;53.440;5.644;2023-04-15T07:49:45;9.70;99.90
53294;DHT22;39181;53.440;5.644;2023-04-15T07:52:11;9.70;99.90
53294;DHT22;39181;53.440;5.644;2023-04-15T07:54:37;9.70;99.90
53294;DHT22;39181;53.440;5.644;2023-04-15T07:57:03;9.80;99.90
53294;DHT22;39181;53.440;5.644;2023-04-15T07:59:29;9.80;99.90
53294;DHT22;39181;53.440;5.644;2023-04-15T08:01:55;9.90;99.90
53294;DHT22;39181;53.440;5.644;2023-04-15T08:04:21;9.90;99.90
53294;DHT22;39181;53.440;5.644;2023-04-15T08:06:47;10.20;99.90
53294;DHT22;39181;53.440;5.644;2023-04-15T08:09:18;10.20;99.90
53294;DHT22;39181;53.440;5.644;2023-04-15T08:11:45;10.30;99.90
53294;DHT22;39181;53.440;5.644;2023-04-15T08:14:10;10.40;99.90
53294;DHT22;39181;53.440;5.644;2023-04-15T08:16:36;10.40;99.90
53294;DHT22;39181;53.440;5.644;2023-04-15T08:19:02;10.50;99.90
53294;DHT22;39181;53.440;5.644;2023-04-15T08:21:28;10.60;99.90
53294;DHT22;39181;53.440;5.644;2023-04-15T08:23:55;10.70;99.90
53294;DHT22;39181;53.440;5.644;2023-04-15T08:26:21;10.70;99.90
53294;DHT22;39181;53.440;5.644;2023-04-15T08:28:47;10.70;99.90
53294;DHT22;39181;53.440;5.644;2023-04-15T08:31:14;10.80;99.90
53294;DHT22;39181;53.440;5.644;2023-04-15T08:33:42;10.80;99.90
53294;DHT22;39181;53.440;5.644;2023-04-15T08:36:08;10.80;99.90
53294;DHT22;39181;53.440;5.644;2023-04-15T08:38:34;10.80;99.90
53294;DHT22;39181;53.440;5.644;2023-04-15T08:41:15;11.00;99.90
53294;DHT22;39181;53.440;5.644;2023-04-15T08:44:00;11.00;99.90
53294;DHT22;39181;53.440;5.644;2023-04-15T08:46:29;11.00;99.90
53294;DHT22;39181;53.440;5.644;2023-04-15T08:48:57;11.00;99.90
53294;DHT22;39181;53.440;5.644;2023-04-15T08:51:23;11.00;99.90
53294;DHT22;39181;53.440;5.644;2023-04-15T08:53:49;11.00;99.90
53294;DHT22;39181;53.440;5.644;2023-04-15T08:56:15;10.90;99.90
53294;DHT22;39181;53.440;5.644;2023-04-15T08:58:43;10.90;99.90
53294;DHT22;39181;53.440;5.644;2023-04-15T09:01:10;10.90;99.90
53294;DHT22;39181;53.440;5.644;2023-04-15T09:03:37;10.80;99.90
53294;DHT22;39181;53.440;5.644;2023-04-15T09:06:04;10.60;99.90
53294;DHT22;39181;53.440;5.644;2023-04-15T09:08:30;10.50;99.90
53294;DHT22;39181;53.440;5.644;2023-04-15T09:10:56;10.60;99.90
53294;DHT22;39181;53.440;5.644;2023-04-15T09:13:21;10.80;99.90
53294;DHT22;39181;53.440;5.644;2023-04-15T09:15:47;10.70;99.90
53294;DHT22;39181;53.440;5.644;2023-04-15T09:18:28;10.80;99.90
53294;DHT22;39181;53.440;5.644;2023-04-15T09:20:55;10.90;99.90
53294;DHT22;39181;53.440;5.644;2023-04-15T09:23:21;10.80;99.90
53294;DHT22;39181;53.440;5.644;2023-04-15T09:25:47;10.80;99.90
53294;DHT22;39181;53.440;5.644;2023-04-15T09:28:14;10.90;99.90
53294;DHT22;39181;53.440;5.644;2023-04-15T09:30:42;11.00;99.90
53294;DHT22;39181;53.440;5.644;2023-04-15T09:33:13;11.10;99.90
53294;DHT22;39181;53.440;5.644;2023-04-15T09:35:38;11.20;99.90
53294;DHT22;39181;53.440;5.644;2023-04-15T09:38:06;11.30;99.90
53294;DHT22;39181;53.440;5.644;2023-04-15T09:40:36;11.20;99.90
53294;DHT22;39181;53.440;5.644;2023-04-15T09:43:03;11.40;99.90
53294;DHT22;39181;53.440;5.644;2023-04-15T09:45:31;11.30;99.90
53294;DHT22;39181;53.440;5.644;2023-04-15T09:47:57;11.40;99.90
53294;DHT22;39181;53.440;5.644;2023-04-15T09:50:28;11.40;99.90
53294;DHT22;39181;53.440;5.644;2023-04-15T09:52:54;11.60;99.90
53294;DHT22;39181;53.440;5.644;2023-04-15T09:55:20;11.70;99.90
53294;DHT22;39181;53.440;5.644;2023-04-15T09:57:47;11.50;99.90
53294;DHT22;39181;53.440;5.644;2023-04-15T10:00:13;11.60;99.90
53294;DHT22;39181;53.440;5.644;2023-04-15T10:02:39;11.70;99.90
53294;DHT22;39181;53.440;5.644;2023-04-15T10:05:10;11.70;99.90
53294;DHT22;39181;53.440;5.644;2023-04-15T10:07:38;11.70;99.90
53294;DHT22;39181;53.440;5.644;2023-04-15T10:10:06;11.80;99.90
53294;DHT22;39181;53.440;5.644;2023-04-15T10:12:32;11.80;99.90
53294;DHT22;39181;53.440;5.644;2023-04-15T10:14:59;11.70;99.90
53294;DHT22;39181;53.440;5.644;2023-04-15T10:17:29;11.70;99.90
53294;DHT22;39181;53.440;5.644;2023-04-15T10:20:03;11.90;99.90
53294;DHT22;39181;53.440;5.644;2023-04-15T10:22:30;11.70;99.90
53294;DHT22;39181;53.440;5.644;2023-04-15T10:24:56;11.60;99.90
53294;DHT22;39181;53.440;5.644;2023-04-15T10:27:22;11.70;99.90
53294;DHT22;39181;53.440;5.644;2023-04-15T10:29:50;11.60;99.90
53294;DHT22;39181;53.440;5.644;2023-04-15T10:32:18;11.50;99.90
53294;DHT22;39181;53.440;5.644;2023-04-15T10:34:46;11.60;99.90
53294;DHT22;39181;53.440;5.644;2023-04-15T10:37:19;11.80;99.90
53294;DHT22;39181;53.440;5.644;2023-04-15T10:39:45;11.90;99.90
53294;DHT22;39181;53.440;5.644;2023-04-15T10:42:13;12.00;99.90
53294;DHT22;39181;53.440;5.644;2023-04-15T10:44:48;12.00;99.90
53294;DHT22;39181;53.440;5.644;2023-04-15T10:47:18;12.00;99.90
53294;DHT22;39181;53.440;5.644;2023-04-15T10:52:24;11.60;99.90
53294;DHT22;39181;53.440;5.644;2023-04-15T10:57:37;11.60;99.90
53294;DHT22;39181;53.440;5.644;2023-04-15T11:00:17;11.40;99.90
53294;DHT22;39181;53.440;5.644;2023-04-15T11:05:21;11.60;99.90
53294;DHT22;39181;53.440;5.644;2023-04-15T11:07:51;11.70;99.90
53294;DHT22;39181;53.440;5.644;2023-04-15T11:12:43;11.60;99.90
53294;DHT22;39181;53.440;5.644;2023-04-15T11:15:28;11.70;99.90
53294;DHT22;39181;53.440;5.644;2023-04-15T11:17:58;11.50;99.90
53294;DHT22;39181;53.440;5.644;2023-04-15T11:20:24;11.40;99.90
53294;DHT22;39181;53.440;5.644;2023-04-15T11:22:52;11.40;99.90
53294;DHT22;39181;53.440;5.644;2023-04-15T11:25:28;11.40;99.90
53294;DHT22;39181;53.440;5.644;2023-04-15T11:27:55;11.50;99.90
53294;DHT22;39181;53.440;5.644;2023-04-15T11:30:25;11.70;99.90
53294;DHT22;39181;53.440;5.644;2023-04-15T11:33:00;11.60;99.90
53294;DHT22;39181;53.440;5.644;2023-04-15T11:35:25;11.40;99.90
53294;DHT22;39181;53.440;5.644;2023-04-15T11:37:51;11.20;99.90
53294;DHT22;39181;53.440;5.644;2023-04-15T11:40:29;11.30;99.90
53294;DHT22;39181;53.440;5.644;2023-04-15T11:43:08;11.20;99.90
53294;DHT22;39181;53.440;5.644;2023-04-15T11:45:35;11.10;99.90
53294;DHT22;39181;53.440;5.644;2023-04-15T11:48:08;11.20;99.90
53294;DHT22;39181;53.440;5.644;2023-04-15T11:50:35;11.10;99.90
53294;DHT22;39181;53.440;5.644;2023-04-15T11:53:04;11.00;99.90
53294;DHT22;39181;53.440;5.644;2023-04-15T11:55:30;11.00;99.90
53294;DHT22;39181;53.440;5.644;2023-04-15T11:58:14;10.90;99.90
53294;DHT22;39181;53.440;5.644;2023-04-15T12:00:51;10.70;99.90
53294;DHT22;39181;53.440;5.644;2023-04-15T12:03:21;10.80;99.90
53294;DHT22;39181;53.440;5.644;2023-04-15T12:08:51;10.80;99.90
53294;DHT22;39181;53.440;5.644;2023-04-15T12:14:01;10.90;99.90
53294;DHT22;39181;53.440;5.644;2023-04-15T12:16:28;10.80;99.90
53294;DHT22;39181;53.440;5.644;2023-04-15T12:18:55;10.50;99.90
53294;DHT22;39181;53.440;5.644;2023-04-15T12:21:23;10.50;99.90
53294;DHT22;39181;53.440;5.644;2023-04-15T12:23:53;10.40;99.90
53294;DHT22;39181;53.440;5.644;2023-04-15T12:26:28;10.30;99.90
53294;DHT22;39181;53.440;5.644;2023-04-15T12:29:08;10.60;99.90
53294;DHT22;39181;53.440;5.644;2023-04-15T12:31:35;10.50;99.90
53294;DHT22;39181;53.440;5.644;2023-04-15T12:34:06;10.50;99.90
53294;DHT22;39181;53.440;5.644;2023-04-15T12:36:33;10.70;99.90
53294;DHT22;39181;53.440;5.644;2023-04-15T12:39:04;10.80;99.90
53294;DHT22;39181;53.440;5.644;2023-04-15T12:41:31;10.80;99.90
53294;DHT22;39181;53.440;5.644;2023-04-15T12:43:57;10.80;99.90
53294;DHT22;39181;53.440;5.644;2023-04-15T12:46:22;10.70;99.90
53294;DHT22;39181;53.440;5.644;2023-04-15T12:48:49;10.60;99.90
53294;DHT22;39181;53.440;5.644;2023-04-15T12:51:16;10.50;99.90
53294;DHT22;39181;53.440;5.644;2023-04-15T12:53:42;10.60;99.90
53294;DHT22;39181;53.440;5.644;2023-04-15T12:56:07;10.50;99.90
53294;DHT22;39181;53.440;5.644;2023-04-15T12:58:33;10.40;99.90
53294;DHT22;39181;53.440;5.644;2023-04-15T13:00:58;10.40;99.90
53294;DHT22;39181;53.440;5.644;2023-04-15T13:03:24;10.40;99.90
53294;DHT22;39181;53.440;5.644;2023-04-15T13:05:50;10.40;99.90
53294;DHT22;39181;53.440;5.644;2023-04-15T13:08:17;10.40;99.90
53294;DHT22;39181;53.440;5.644;2023-04-15T13:10:46;10.30;99.90
53294;DHT22;39181;53.440;5.644;2023-04-15T13:13:11;10.40;99.90
53294;DHT22;39181;53.440;5.644;2023-04-15T13:15:37;10.60;99.90
53294;DHT22;39181;53.440;5.644;2023-04-15T13:18:05;10.50;99.90
53294;DHT22;39181;53.440;5.644;2023-04-15T13:20:31;10.50;99.90
53294;DHT22;39181;53.440;5.644;2023-04-15T13:22:56;10.40;99.90
53294;DHT22;39181;53.440;5.644;2023-04-15T13:25:22;10.30;99.90
53294;DHT22;39181;53.440;5.644;2023-04-15T13:27:48;10.30;99.90
53294;DHT22;39181;53.440;5.644;2023-04-15T13:30:14;10.30;99.90
53294;DHT22;39181;53.440;5.644;2023-04-15T13:32:39;10.30;99.90
53294;DHT22;39181;53.440;5.644;2023-04-15T13:35:05;10.20;99.90
53294;DHT22;39181;53.440;5.644;2023-04-15T13:37:31;10.20;99.90
53294;DHT22;39181;53.440;5.644;2023-04-15T13:39:56;10.20;99.90
53294;DHT22;39181;53.440;5.644;2023-04-15T13:42:23;10.30;99.90
53294;DHT22;39181;53.440;5.644;2023-04-15T13:44:49;10.20;99.90
53294;DHT22;39181;53.440;5.644;2023-04-15T13:47:18;10.20;99.90
53294;DHT22;39181;53.440;5.644;2023-04-15T13:49:44;10.10;99.90
53294;DHT22;39181;53.440;5.644;2023-04-15T13:52:13;10.10;99.90
53294;DHT22;39181;53.440;5.644;2023-04-15T13:54:38;10.10;99.90
53294;DHT22;39181;53.440;5.644;2023-04-15T13:57:04;9.80;99.90
53294;DHT22;39181;53.440;5.644;2023-04-15T13:59:32;10.10;99.90
53294;DHT22;39181;53.440;5.644;2023-04-15T14:01:58;10.20;99.90
53294;DHT22;39181;53.440;5.644;2023-04-15T14:04:23;10.20;99.90
53294;DHT22;39181;53.440;5.644;2023-04-15T14:06:49;10.30;99.90
53294;DHT22;39181;53.440;5.644;2023-04-15T14:09:18;10.20;99.90
53294;DHT22;39181;53.440;5.644;2023-04-15T14:11:43;10.30;99.90
53294;DHT22;39181;53.440;5.644;2023-04-15T14:14:09;10.40;99.90
53294;DHT22;39181;53.440;5.644;2023-04-15T14:16:35;10.40;99.90
53294;DHT22;39181;53.440;5.644;2023-04-15T14:19:01;10.50;99.90
53294;DHT22;39181;53.440;5.644;2023-04-15T14:21:27;10.50;99.90
53294;DHT22;39181;53.440;5.644;2023-04-15T14:23:53;10.50;99.90
53294;DHT22;39181;53.440;5.644;2023-04-15T14:26:19;10.50;99.90
53294;DHT22;39181;53.440;5.644;2023-04-15T14:28:44;10.60;99.90
53294;DHT22;39181;53.440;5.644;2023-04-15T14:31:10;10.50;99.90
53294;DHT22;39181;53.440;5.644;2023-04-15T14:33:36;10.40;99.90
53294;DHT22;39181;53.440;5.644;2023-04-15T14:36:02;10.40;99.90
53294;DHT22;39181;53.440;5.644;2023-04-15T14:38:27;10.30;99.90
53294;DHT22;39181;53.440;5.644;2023-04-15T14:40:53;10.40;99.90
53294;DHT22;39181;53.440;5.644;2023-04-15T14:43:19;10.20;99.90
53294;DHT22;39181;53.440;5.644;2023-04-15T14:45:45;10.20;99.90
53294;DHT22;39181;53.440;5.644;2023-04-15T14:48:11;10.40;99.90
53294;DHT22;39181;53.440;5.644;2023-04-15T14:50:37;10.30;99.90
53294;DHT22;39181;53.440;5.644;2023-04-15T14:53:03;10.40;99.90
53294;DHT22;39181;53.440;5.644;2023-04-15T14:55:28;10.30;99.90
53294;DHT22;39181;53.440;5.644;2023-04-15T14:57:54;10.20;99.90
53294;DHT22;39181;53.440;5.644;2023-04-15T15:00:20;10.10;99.90
53294;DHT22;39181;53.440;5.644;2023-04-15T15:02:46;10.10;99.90
53294;DHT22;39181;53.440;5.644;2023-04-15T15:05:14;10.20;99.90
53294;DHT22;39181;53.440;5.644;2023-04-15T15:07:40;10.30;99.90
53294;DHT22;39181;53.440;5.644;2023-04-15T15:10:06;10.20;99.90
53294;DHT22;39181;53.440;5.644;2023-04-15T15:12:32;10.20;99.90
53294;DHT22;39181;53.440;5.644;2023-04-15T15:14:58;10.20;99.90
53294;DHT22;39181;53.440;5.644;2023-04-15T15:17:24;10.20;99.90
53294;DHT22;39181;53.440;5.644;2023-04-15T15:19:50;10.20;99.90
53294;DHT22;39181;53.440;5.644;2023-04-15T15:22:16;10.10;99.90
53294;DHT22;39181;53.440;5.644;2023-04-15T15:24:41;10.10;99.90
53294;DHT22;39181;53.440;5.644;2023-04-15T15:27:10;10.10;99.90
53294;DHT22;39181;53.440;5.644;2023-04-15T15:29:36;10.00;99.90
53294;DHT22;39181;53.440;5.644;2023-04-15T15:32:02;10.00;99.90
53294;DHT22;39181;53.440;5.644;2023-04-15T15:34:28;10.00;99.90
53294;DHT22;39181;53.440;5.644;2023-04-15T15:36:54;9.90;99.90
53294;DHT22;39181;53.440;5.644;2023-04-15T15:39:22;10.00;99.90
53294;DHT22;39181;53.440;5.644;2023-04-15T15:41:48;10.10;99.90
53294;DHT22;39181;53.440;5.644;2023-04-15T15:44:14;10.20;99.90
53294;DHT22;39181;53.440;5.644;2023-04-15T15:46:42;10.10;99.90
53294;DHT22;39181;53.440;5.644;2023-04-15T15:49:08;10.10;99.90
53294;DHT22;39181;53.440;5.644;2023-04-15T15:51:34;10.10;99.90
53294;DHT22;39181;53.440;5.644;2023-04-15T15:53:59;10.10;99.90